Time,TemperatureF,DewpointF,PressureIn,WindDirection,WindDirectionDegrees,WindSpeedMPH,WindSpeedGustMPH,Humidity,HourlyPrecipIn,Conditions,Clouds,dailyrainin,SoftwareType,DateUTC
2013-10-11 00:04:00,51.2,50.4,30.14,SSE,150,0.0,0.0,97,0.00,,,0.00,Wunderground v.1.15,2013-10-11 04:04:00,
2013-10-11 00:09:00,51.2,50.7,30.13,SSE,150,0.0,0.0,98,0.00,,,0.00,Wunderground v.1.15,2013-10-11 04:09:00,
2013-10-11 00:19:00,51.0,50.5,30.13,SSE,150,0.0,0.0,98,0.00,,,0.00,Wunderground v.1.15,2013-10-11 04:19:00,
2013-10-11 00:24:00,51.0,50.5,30.13,SSE,150,0.0,0.0,98,0.00,,,0.00,Wunderground v.1.15,2013-10-11 04:24:00,
2013-10-11 00:29:00,50.8,50.0,30.13,SSE,150,0.0,0.0,97,0.00,,,0.00,Wunderground v.1.15,2013-10-11 04:29:00,
2013-10-11 00:34:00,50.7,49.9,30.13,SSE,150,0.0,0.0,97,0.00,,,0.00,Wunderground v.1.15,2013-10-11 04:34:00,
2013-10-11 00:39:00,50.6,50.1,30.13,SSE,150,0.0,0.0,98,0.00,,,0.00,Wunderground v.1.15,2013-10-11 04:39:00,
2013-10-11 00:44:00,50.5,50.0,30.13,SSE,150,0.0,0.0,98,0.00,,,0.00,Wunderground v.1.15,2013-10-11 04:44:00,
2013-10-11 00:49:00,50.4,49.9,30.13,SSE,150,0.0,0.0,98,0.00,,,0.00,Wunderground v.1.15,2013-10-11 04:49:00,
2013-10-11 00:59:00,50.2,49.7,30.13,SSE,150,0.0,0.0,98,0.00,,,0.00,Wunderground v.1.15,2013-10-11 04:59:00,
2013-10-11 01:04:00,50.3,49.8,30.13,SSE,150,0.0,0.0,98,0.00,,,0.00,Wunderground v.1.15,2013-10-11 05:04:00,
2013-10-11 01:14:00,50.8,50.3,30.13,SSE,150,0.0,0.0,98,0.00,,,0.00,Wunderground v.1.15,2013-10-11 05:14:00,
2013-10-11 01:19:00,50.9,50.4,30.13,SSE,150,0.0,0.0,98,0.00,,,0.00,Wunderground v.1.15,2013-10-11 05:19:00,
2013-10-11 01:24:00,50.8,50.3,30.13,SSE,150,0.0,0.0,98,0.00,,,0.00,Wunderground v.1.15,2013-10-11 05:24:00,
2013-10-11 01:29:00,50.8,50.3,30.13,SSE,150,0.0,0.0,98,0.00,,,0.00,Wunderground v.1.15,2013-10-11 05:29:00,
2013-10-11 01:39:00,50.7,50.2,30.12,SSE,150,0.0,0.0,98,0.00,,,0.00,Wunderground v.1.15,2013-10-11 05:39:00,
2013-10-11 01:44:00,50.7,50.2,30.11,SSE,150,0.0,0.0,98,0.00,,,0.00,Wunderground v.1.15,2013-10-11 05:44:00,
2013-10-11 01:49:00,50.7,50.2,30.11,SSE,150,0.0,0.0,98,0.00,,,0.00,Wunderground v.1.15,2013-10-11 05:49:00,
2013-10-11 01:59:00,50.5,50.0,30.11,SSE,150,0.0,0.0,98,0.00,,,0.00,Wunderground v.1.15,2013-10-11 05:59:00,
2013-10-11 02:04:00,50.4,49.9,30.10,SSE,150,0.0,0.0,98,0.00,,,0.00,Wunderground v.1.15,2013-10-11 06:04:00,
2013-10-11 02:09:00,50.3,49.8,30.10,SSE,150,0.0,0.0,98,0.00,,,0.00,Wunderground v.1.15,2013-10-11 06:09:00,
2013-10-11 02:14:00,50.2,49.7,30.10,SSE,150,0.0,0.0,98,0.00,,,0.00,Wunderground v.1.15,2013-10-11 06:14:00,
2013-10-11 02:19:00,50.1,49.6,30.10,SSE,150,0.0,0.0,98,0.00,,,0.00,Wunderground v.1.15,2013-10-11 06:19:00,
2013-10-11 02:24:00,49.9,49.4,30.09,SSE,150,0.0,0.0,98,0.00,,,0.00,Wunderground v.1.15,2013-10-11 06:24:00,
2013-10-11 02:29:00,49.6,49.1,30.09,SSE,150,0.0,0.0,98,0.00,,,0.00,Wunderground v.1.15,2013-10-11 06:29:00,
2013-10-11 02:39:00,49.4,48.9,30.09,SSE,150,0.0,0.0,98,0.00,,,0.00,Wunderground v.1.15,2013-10-11 06:39:00,
2013-10-11 02:44:00,49.3,48.8,30.09,SSE,150,0.0,0.0,98,0.00,,,0.00,Wunderground v.1.15,2013-10-11 06:44:00,
2013-10-11 02:49:00,49.2,48.7,30.10,SSE,150,0.0,0.0,98,0.00,,,0.00,Wunderground v.1.15,2013-10-11 06:49:00,
2013-10-11 02:54:00,49.1,48.6,30.10,SSE,150,0.0,0.0,98,0.00,,,0.00,Wunderground v.1.15,2013-10-11 06:54:00,
2013-10-11 02:59:00,48.9,48.4,30.10,SSE,150,0.0,0.0,98,0.00,,,0.00,Wunderground v.1.15,2013-10-11 06:59:00,
2013-10-11 03:04:00,48.8,48.3,30.10,SSE,150,0.0,0.0,98,0.00,,,0.00,Wunderground v.1.15,2013-10-11 07:04:00,
2013-10-11 03:09:00,48.8,48.3,30.10,SSE,150,0.0,0.0,98,0.00,,,0.00,Wunderground v.1.15,2013-10-11 07:09:00,
2013-10-11 03:19:00,49.2,48.9,30.10,SSE,150,0.0,0.0,99,0.00,,,0.00,Wunderground v.1.15,2013-10-11 07:19:00,
2013-10-11 03:24:00,49.5,49.2,30.09,SSE,150,0.0,0.0,99,0.00,,,0.00,Wunderground v.1.15,2013-10-11 07:24:00,
2013-10-11 03:29:00,49.6,49.3,30.09,SSE,150,0.0,0.0,99,0.00,,,0.00,Wunderground v.1.15,2013-10-11 07:29:00,
2013-10-11 03:39:00,49.7,49.4,30.09,SSE,150,0.0,0.0,99,0.00,,,0.00,Wunderground v.1.15,2013-10-11 07:39:00,
2013-10-11 03:44:00,49.6,49.3,30.09,SSE,150,0.0,0.0,99,0.00,,,0.00,Wunderground v.1.15,2013-10-11 07:44:00,
2013-10-11 03:49:00,49.5,49.2,30.09,SSE,150,0.0,0.0,99,0.00,,,0.00,Wunderground v.1.15,2013-10-11 07:49:00,
2013-10-11 03:54:00,49.3,49.0,30.09,SSE,150,0.0,0.0,99,0.00,,,0.00,Wunderground v.1.15,2013-10-11 07:54:00,
2013-10-11 03:59:00,49.2,48.9,30.09,SSE,150,0.0,0.0,99,0.00,,,0.00,Wunderground v.1.15,2013-10-11 07:59:00,
2013-10-11 04:04:00,49.1,48.8,30.09,SSE,150,0.0,0.0,99,0.00,,,0.00,Wunderground v.1.15,2013-10-11 08:04:00,
2013-10-11 04:14:00,48.8,48.5,30.09,SSE,150,0.0,0.0,99,0.00,,,0.00,Wunderground v.1.15,2013-10-11 08:14:00,
2013-10-11 04:19:00,48.6,48.3,30.09,SSE,150,0.0,0.0,99,0.00,,,0.00,Wunderground v.1.15,2013-10-11 08:19:00,
2013-10-11 04:24:00,48.4,48.1,30.09,SSE,150,0.0,0.0,99,0.00,,,0.00,Wunderground v.1.15,2013-10-11 08:24:00,
2013-10-11 04:29:00,48.3,48.0,30.09,SSE,150,0.0,0.0,99,0.00,,,0.00,Wunderground v.1.15,2013-10-11 08:29:00,
2013-10-11 04:39:00,48.4,48.1,30.10,SSE,150,0.0,0.0,99,0.00,,,0.00,Wunderground v.1.15,2013-10-11 08:39:00,
2013-10-11 04:44:00,48.3,48.0,30.10,SSE,150,0.0,0.0,99,0.00,,,0.00,Wunderground v.1.15,2013-10-11 08:44:00,
2013-10-11 04:49:00,48.3,48.0,30.09,SSE,150,0.0,0.0,99,0.00,,,0.00,Wunderground v.1.15,2013-10-11 08:49:00,
2013-10-11 04:59:00,48.2,47.9,30.10,SSE,150,0.0,0.0,99,0.00,,,0.00,Wunderground v.1.15,2013-10-11 08:59:00,
2013-10-11 05:09:00,48.2,47.9,30.10,SSE,150,0.0,0.0,99,0.00,,,0.00,Wunderground v.1.15,2013-10-11 09:09:00,
2013-10-11 05:19:00,48.2,47.9,30.10,SSE,150,0.0,0.0,99,0.00,,,0.00,Wunderground v.1.15,2013-10-11 09:19:00,
2013-10-11 05:24:00,48.1,47.8,30.10,SSE,150,0.0,0.0,99,0.00,,,0.00,Wunderground v.1.15,2013-10-11 09:24:00,
2013-10-11 05:29:00,48.1,47.8,30.10,SSE,150,0.0,0.0,99,0.00,,,0.00,Wunderground v.1.15,2013-10-11 09:29:00,
2013-10-11 05:34:00,48.2,47.9,30.10,SSE,150,0.0,0.0,99,0.00,,,0.00,Wunderground v.1.15,2013-10-11 09:34:00,
2013-10-11 05:39:00,48.2,47.9,30.10,SSE,150,0.0,0.0,99,0.00,,,0.00,Wunderground v.1.15,2013-10-11 09:39:00,
2013-10-11 05:44:00,48.2,47.9,30.10,SSE,150,0.0,0.0,99,0.00,,,0.00,Wunderground v.1.15,2013-10-11 09:44:00,
2013-10-11 05:49:00,48.2,47.9,30.10,SSE,150,0.0,0.0,99,0.00,,,0.00,Wunderground v.1.15,2013-10-11 09:49:00,
2013-10-11 05:54:00,48.2,47.9,30.10,SSE,150,0.0,0.0,99,0.00,,,0.00,Wunderground v.1.15,2013-10-11 09:54:00,
2013-10-11 05:59:00,48.2,47.9,30.10,SSE,150,0.0,0.0,99,0.00,,,0.00,Wunderground v.1.15,2013-10-11 09:59:00,
2013-10-11 06:09:00,48.2,47.9,30.10,SSE,150,0.0,0.0,99,0.00,,,0.00,Wunderground v.1.15,2013-10-11 10:09:00,
2013-10-11 06:14:00,48.2,47.9,30.10,SSE,150,0.0,0.0,99,0.00,,,0.00,Wunderground v.1.15,2013-10-11 10:14:00,
2013-10-11 06:19:00,48.1,47.8,30.10,SSE,150,0.0,0.0,99,0.00,,,0.00,Wunderground v.1.15,2013-10-11 10:19:00,
2013-10-11 06:24:00,48.2,47.9,30.10,SSE,150,0.0,0.0,99,0.00,,,0.00,Wunderground v.1.15,2013-10-11 10:24:00,
2013-10-11 06:34:00,48.3,48.0,30.11,SSE,150,0.0,0.0,99,0.00,,,0.00,Wunderground v.1.15,2013-10-11 10:34:00,
2013-10-11 06:44:00,48.6,48.3,30.11,SSE,150,0.0,0.0,99,0.00,,,0.00,Wunderground v.1.15,2013-10-11 10:44:00,
2013-10-11 06:49:00,48.7,48.4,30.11,SSE,150,0.0,0.0,99,0.00,,,0.00,Wunderground v.1.15,2013-10-11 10:49:00,
2013-10-11 06:54:00,48.7,48.4,30.11,SSE,150,0.0,0.0,99,0.00,,,0.00,Wunderground v.1.15,2013-10-11 10:54:00,
2013-10-11 06:59:00,48.8,48.5,30.11,SSE,150,0.0,0.0,99,0.00,,,0.00,Wunderground v.1.15,2013-10-11 10:59:00,
2013-10-11 07:04:00,48.7,48.4,30.11,SSE,150,0.0,0.0,99,0.00,,,0.00,Wunderground v.1.15,2013-10-11 11:04:00,
2013-10-11 07:09:00,48.6,48.3,30.11,SSE,150,0.0,0.0,99,0.00,,,0.00,Wunderground v.1.15,2013-10-11 11:09:00,
2013-10-11 07:14:00,48.6,48.3,30.11,SSE,150,0.0,0.0,99,0.00,,,0.00,Wunderground v.1.15,2013-10-11 11:14:00,
2013-10-11 07:24:00,48.5,48.2,30.11,SSE,150,0.0,0.0,99,0.00,,,0.00,Wunderground v.1.15,2013-10-11 11:24:00,
2013-10-11 07:29:00,48.5,48.2,30.11,SSE,150,0.0,0.0,99,0.00,,,0.00,Wunderground v.1.15,2013-10-11 11:29:00,
2013-10-11 07:34:00,48.6,48.3,30.11,SSE,150,0.0,0.0,99,0.00,,,0.00,Wunderground v.1.15,2013-10-11 11:34:00,
2013-10-11 07:44:00,48.8,48.5,30.11,SSE,150,0.0,0.0,99,0.00,,,0.00,Wunderground v.1.15,2013-10-11 11:44:00,
2013-10-11 07:49:00,48.9,48.6,30.11,SSE,150,0.0,0.0,99,0.00,,,0.00,Wunderground v.1.15,2013-10-11 11:49:00,
2013-10-11 07:54:00,49.1,48.8,30.11,SSE,150,0.0,0.0,99,0.00,,,0.00,Wunderground v.1.15,2013-10-11 11:54:00,
2013-10-11 07:59:00,49.2,49.2,30.11,ESE,117,0.0,0.0,100,0.00,,,0.00,Wunderground v.1.15,2013-10-11 11:59:00,
2013-10-11 08:04:00,49.4,49.4,30.11,ESE,117,0.0,0.0,100,0.00,,,0.00,Wunderground v.1.15,2013-10-11 12:04:00,
2013-10-11 08:09:00,49.6,49.3,30.11,ESE,117,0.0,0.0,99,0.00,,,0.00,Wunderground v.1.15,2013-10-11 12:09:00,
2013-10-11 08:14:00,49.7,49.4,30.11,ESE,117,0.0,0.0,99,0.00,,,0.00,Wunderground v.1.15,2013-10-11 12:14:00,
2013-10-11 08:19:00,50.0,50.0,30.10,ESE,117,0.0,0.0,100,0.00,,,0.00,Wunderground v.1.15,2013-10-11 12:19:00,
2013-10-11 08:24:00,50.2,50.2,30.10,ESE,117,0.0,0.0,100,0.00,,,0.00,Wunderground v.1.15,2013-10-11 12:24:00,
2013-10-11 08:29:00,50.4,50.1,30.10,ESE,117,0.0,0.0,99,0.00,,,0.00,Wunderground v.1.15,2013-10-11 12:29:00,
2013-10-11 08:39:00,50.8,50.5,30.10,ESE,117,0.0,0.0,99,0.00,,,0.00,Wunderground v.1.15,2013-10-11 12:39:00,
2013-10-11 08:44:00,51.2,51.2,30.10,ESE,117,0.0,0.0,100,0.00,,,0.00,Wunderground v.1.15,2013-10-11 12:44:00,
2013-10-11 08:54:00,51.7,51.7,30.11,ESE,117,0.0,2.0,100,0.00,,,0.00,Wunderground v.1.15,2013-10-11 12:54:00,
2013-10-11 08:59:00,52.1,51.8,30.11,ESE,117,0.0,0.0,99,0.00,,,0.00,Wunderground v.1.15,2013-10-11 12:59:00,
2013-10-11 09:04:00,52.6,52.3,30.11,ESE,117,0.0,0.0,99,0.00,,,0.00,Wunderground v.1.15,2013-10-11 13:04:00,
2013-10-11 09:09:00,53.0,52.7,30.11,ESE,115,0.0,0.0,99,0.00,,,0.00,Wunderground v.1.15,2013-10-11 13:09:00,
2013-10-11 09:14:00,53.3,53.0,30.11,ESE,116,0.0,0.0,99,0.00,,,0.00,Wunderground v.1.15,2013-10-11 13:14:00,
2013-10-11 09:19:00,53.8,53.2,30.11,ESE,115,0.0,0.0,98,0.00,,,0.00,Wunderground v.1.15,2013-10-11 13:19:00,
2013-10-11 09:24:00,54.4,53.8,30.11,ESE,115,0.0,0.0,98,0.00,,,0.00,Wunderground v.1.15,2013-10-11 13:24:00,
2013-10-11 09:29:00,55.0,54.2,30.11,ESE,113,1.0,2.0,97,0.00,,,0.00,Wunderground v.1.15,2013-10-11 13:29:00,
2013-10-11 09:34:00,55.7,54.6,30.11,NE,38,1.0,3.0,96,0.00,,,0.00,Wunderground v.1.15,2013-10-11 13:34:00,
2013-10-11 09:44:00,56.8,54.2,30.11,NE,37,0.0,1.0,91,0.00,,,0.00,Wunderground v.1.15,2013-10-11 13:44:00,
2013-10-11 09:49:00,57.3,54.1,30.11,NNE,29,1.0,1.0,89,0.00,,,0.00,Wunderground v.1.15,2013-10-11 13:49:00,
2013-10-11 09:54:00,57.8,54.3,30.11,NE,34,1.0,1.0,88,0.00,,,0.00,Wunderground v.1.15,2013-10-11 13:54:00,
2013-10-11 10:04:00,58.1,53.9,30.11,NNW,344,1.0,3.0,86,0.00,,,0.00,Wunderground v.1.15,2013-10-11 14:04:00,
2013-10-11 10:09:00,58.2,53.4,30.11,NNW,344,1.0,1.0,84,0.00,,,0.00,Wunderground v.1.15,2013-10-11 14:09:00,
2013-10-11 10:14:00,58.3,53.2,30.12,NNW,344,0.0,1.0,83,0.00,,,0.00,Wunderground v.1.15,2013-10-11 14:14:00,
2013-10-11 10:19:00,58.5,52.4,30.12,NNE,21,1.0,1.0,80,0.00,,,0.00,Wunderground v.1.15,2013-10-11 14:19:00,
2013-10-11 10:24:00,59.0,51.4,30.12,NNE,31,1.0,1.0,76,0.00,,,0.00,Wunderground v.1.15,2013-10-11 14:24:00,
2013-10-11 10:34:00,60.4,51.3,30.12,NE,34,0.0,1.0,72,0.00,,,0.00,Wunderground v.1.15,2013-10-11 14:34:00,
2013-10-11 10:39:00,61.1,52.0,30.12,NE,35,0.0,0.0,72,0.00,,,0.00,Wunderground v.1.15,2013-10-11 14:39:00,
2013-10-11 10:44:00,61.6,51.3,30.11,NE,35,0.0,0.0,69,0.00,,,0.00,Wunderground v.1.15,2013-10-11 14:44:00,
2013-10-11 10:49:00,62.1,51.0,30.11,NE,35,0.0,0.0,67,0.00,,,0.00,Wunderground v.1.15,2013-10-11 14:49:00,
2013-10-11 10:54:00,62.5,51.8,30.11,East,96,0.0,0.0,68,0.00,,,0.00,Wunderground v.1.15,2013-10-11 14:54:00,
2013-10-11 10:59:00,62.8,52.1,30.11,East,83,0.0,0.0,68,0.00,,,0.00,Wunderground v.1.15,2013-10-11 14:59:00,
2013-10-11 11:09:00,63.1,51.1,30.11,East,84,0.0,0.0,65,0.00,,,0.00,Wunderground v.1.15,2013-10-11 15:09:00,
2013-10-11 11:19:00,63.3,50.5,30.10,ENE,64,0.0,0.0,63,0.00,,,0.00,Wunderground v.1.15,2013-10-11 15:19:00,
2013-10-11 11:24:00,63.0,50.6,30.10,ENE,57,1.0,1.0,64,0.00,,,0.00,Wunderground v.1.15,2013-10-11 15:24:00,
2013-10-11 11:29:00,63.0,51.0,30.11,ENE,57,0.0,0.0,65,0.00,,,0.00,Wunderground v.1.15,2013-10-11 15:29:00,
2013-10-11 11:39:00,63.6,50.3,30.11,NE,51,0.0,1.0,62,0.00,,,0.00,Wunderground v.1.15,2013-10-11 15:39:00,
2013-10-11 11:44:00,63.5,51.5,30.11,NE,51,0.0,1.0,65,0.00,,,0.00,Wunderground v.1.15,2013-10-11 15:44:00,
2013-10-11 11:49:00,63.8,51.8,30.10,NE,51,0.0,0.0,65,0.00,,,0.00,Wunderground v.1.15,2013-10-11 15:49:00,
2013-10-11 11:54:00,64.0,52.4,30.10,NE,51,0.0,0.0,66,0.00,,,0.00,Wunderground v.1.15,2013-10-11 15:54:00,
2013-10-11 11:59:00,64.0,49.8,30.10,West,277,0.0,2.0,60,0.00,,,0.00,Wunderground v.1.15,2013-10-11 15:59:00,
2013-10-11 12:04:00,64.2,51.3,30.10,SSE,161,0.0,2.0,63,0.00,,,0.00,Wunderground v.1.15,2013-10-11 16:04:00,
2013-10-11 12:09:00,64.5,48.9,30.10,SSE,161,0.0,1.0,57,0.00,,,0.00,Wunderground v.1.15,2013-10-11 16:09:00,
2013-10-11 12:19:00,64.9,48.3,30.09,SSW,195,0.0,0.0,55,0.00,,,0.00,Wunderground v.1.15,2013-10-11 16:19:00,
2013-10-11 12:24:00,64.8,48.7,30.09,SSW,200,0.0,0.0,56,0.00,,,0.00,Wunderground v.1.15,2013-10-11 16:24:00,
2013-10-11 12:34:00,64.8,50.6,30.09,SSW,202,0.0,0.0,60,0.00,,,0.00,Wunderground v.1.15,2013-10-11 16:34:00,
2013-10-11 12:39:00,64.8,52.3,30.09,SSW,202,0.0,1.0,64,0.00,,,0.00,Wunderground v.1.15,2013-10-11 16:39:00,
2013-10-11 12:44:00,64.7,52.7,30.09,South,169,1.0,2.0,65,0.00,,,0.00,Wunderground v.1.15,2013-10-11 16:44:00,
2013-10-11 12:49:00,64.1,52.5,30.09,East,95,1.0,1.0,66,0.00,,,0.00,Wunderground v.1.15,2013-10-11 16:49:00,
2013-10-11 12:54:00,63.9,52.7,30.09,SE,130,2.0,2.0,67,0.00,,,0.00,Wunderground v.1.15,2013-10-11 16:54:00,
2013-10-11 12:59:00,63.6,52.8,30.09,SE,130,1.0,1.0,68,0.00,,,0.00,Wunderground v.1.15,2013-10-11 16:59:00,
2013-10-11 13:04:00,63.5,53.5,30.09,SE,128,1.0,1.0,70,0.00,,,0.00,Wunderground v.1.15,2013-10-11 17:04:00,
2013-10-11 13:09:00,63.3,53.0,30.08,SE,130,1.0,2.0,69,0.00,,,0.00,Wunderground v.1.15,2013-10-11 17:09:00,
2013-10-11 13:19:00,62.7,53.5,30.08,SE,133,1.0,1.0,72,0.00,,,0.00,Wunderground v.1.15,2013-10-11 17:19:00,
2013-10-11 13:29:00,61.4,52.3,30.08,ESE,120,2.0,2.0,72,0.00,,,0.00,Wunderground v.1.15,2013-10-11 17:29:00,
2013-10-11 13:34:00,61.3,52.2,30.08,ESE,123,1.0,2.0,72,0.00,,,0.00,Wunderground v.1.15,2013-10-11 17:34:00,
2013-10-11 13:39:00,61.3,51.8,30.08,SE,124,1.0,1.0,71,0.00,,,0.00,Wunderground v.1.15,2013-10-11 17:39:00,
2013-10-11 13:44:00,61.1,50.1,30.08,SE,126,2.0,2.0,67,0.00,,,0.00,Wunderground v.1.15,2013-10-11 17:44:00,
2013-10-11 13:49:00,61.2,51.7,30.08,SE,127,1.0,1.0,71,0.00,,,0.00,Wunderground v.1.15,2013-10-11 17:49:00,
2013-10-11 13:54:00,61.2,52.1,30.08,SE,129,1.0,1.0,72,0.00,,,0.00,Wunderground v.1.15,2013-10-11 17:54:00,
2013-10-11 13:59:00,61.2,50.2,30.08,ESE,117,1.0,1.0,67,0.00,,,0.00,Wunderground v.1.15,2013-10-11 17:59:00,
2013-10-11 14:04:00,61.3,51.0,30.08,ESE,119,1.0,1.0,69,0.00,,,0.00,Wunderground v.1.15,2013-10-11 18:04:00,
2013-10-11 14:09:00,61.3,52.6,30.08,SE,132,1.0,1.0,73,0.00,,,0.00,Wunderground v.1.15,2013-10-11 18:09:00,
2013-10-11 14:19:00,61.1,52.7,30.07,SE,141,1.0,1.0,74,0.00,,,0.00,Wunderground v.1.15,2013-10-11 18:19:00,
2013-10-11 14:24:00,61.0,52.3,30.07,SSE,148,2.0,2.0,73,0.00,,,0.00,Wunderground v.1.15,2013-10-11 18:24:00,
2013-10-11 14:29:00,61.0,52.3,30.07,SSE,148,1.0,1.0,73,0.00,,,0.00,Wunderground v.1.15,2013-10-11 18:29:00,
2013-10-11 14:39:00,61.2,52.8,30.07,SSE,148,1.0,1.0,74,0.00,,,0.00,Wunderground v.1.15,2013-10-11 18:39:00,
2013-10-11 14:44:00,61.3,52.9,30.07,SSE,148,1.0,1.0,74,0.00,,,0.00,Wunderground v.1.15,2013-10-11 18:44:00,
2013-10-11 14:49:00,61.4,52.7,30.07,SSE,148,0.0,3.0,73,0.00,,,0.00,Wunderground v.1.15,2013-10-11 18:49:00,
2013-10-11 14:54:00,61.3,52.6,30.07,SSE,148,1.0,3.0,73,0.00,,,0.00,Wunderground v.1.15,2013-10-11 18:54:00,
2013-10-11 14:59:00,61.2,52.8,30.07,SSE,148,1.0,1.0,74,0.00,,,0.00,Wunderground v.1.15,2013-10-11 18:59:00,
2013-10-11 15:04:00,61.3,52.9,30.07,SSE,148,1.0,1.0,74,0.00,,,0.00,Wunderground v.1.15,2013-10-11 19:04:00,
2013-10-11 15:09:00,61.2,52.5,30.07,SSE,148,0.0,0.0,73,0.00,,,0.00,Wunderground v.1.15,2013-10-11 19:09:00,
2013-10-11 15:14:00,61.1,53.1,30.07,SSE,148,1.0,1.0,75,0.00,,,0.00,Wunderground v.1.15,2013-10-11 19:14:00,
2013-10-11 15:19:00,60.9,52.6,30.07,SE,129,1.0,1.0,74,0.00,,,0.00,Wunderground v.1.15,2013-10-11 19:19:00,
2013-10-11 15:29:00,61.0,53.0,30.07,SE,129,0.0,1.0,75,0.00,,,0.00,Wunderground v.1.15,2013-10-11 19:29:00,
2013-10-11 15:34:00,60.9,52.9,30.06,SE,130,1.0,1.0,75,0.00,,,0.00,Wunderground v.1.15,2013-10-11 19:34:00,
2013-10-11 15:39:00,60.9,52.9,30.06,SE,130,0.0,0.0,75,0.00,,,0.00,Wunderground v.1.15,2013-10-11 19:39:00,
2013-10-11 15:49:00,60.9,53.3,30.06,SE,129,0.0,2.0,76,0.00,,,0.00,Wunderground v.1.15,2013-10-11 19:49:00,
2013-10-11 15:54:00,60.9,54.0,30.06,SE,130,0.0,2.0,78,0.00,,,0.00,Wunderground v.1.15,2013-10-11 19:54:00,
2013-10-11 15:59:00,60.9,54.3,30.07,SE,129,0.0,0.0,79,0.00,,,0.00,Wunderground v.1.15,2013-10-11 19:59:00,
2013-10-11 16:09:00,61.0,55.1,30.07,SE,130,0.0,0.0,81,0.00,,,0.00,Wunderground v.1.15,2013-10-11 20:09:00,
2013-10-11 16:14:00,61.0,55.5,30.07,SE,130,0.0,1.0,82,0.00,,,0.00,Wunderground v.1.15,2013-10-11 20:14:00,
2013-10-11 16:19:00,60.9,55.4,30.07,SE,130,0.0,0.0,82,0.00,,,0.00,Wunderground v.1.15,2013-10-11 20:19:00,
2013-10-11 16:24:00,60.9,55.0,30.07,SE,130,0.0,0.0,81,0.00,,,0.00,Wunderground v.1.15,2013-10-11 20:24:00,
2013-10-11 16:29:00,60.9,55.4,30.07,SE,130,0.0,0.0,82,0.00,,,0.00,Wunderground v.1.15,2013-10-11 20:29:00,
2013-10-11 16:34:00,60.8,55.3,30.07,SE,130,0.0,0.0,82,0.00,,,0.00,Wunderground v.1.15,2013-10-11 20:34:00,
2013-10-11 16:39:00,60.7,55.2,30.07,SE,130,0.0,0.0,82,0.00,,,0.00,Wunderground v.1.15,2013-10-11 20:39:00,
2013-10-11 16:49:00,60.6,55.1,30.07,SE,130,0.0,0.0,82,0.00,,,0.00,Wunderground v.1.15,2013-10-11 20:49:00,
2013-10-11 16:54:00,60.5,55.3,30.07,SE,130,0.0,0.0,83,0.00,,,0.00,Wunderground v.1.15,2013-10-11 20:54:00,
2013-10-11 16:59:00,60.4,55.2,30.07,SE,130,0.0,0.0,83,0.00,,,0.00,Wunderground v.1.15,2013-10-11 20:59:00,
2013-10-11 17:04:00,60.2,55.0,30.07,SE,129,0.0,0.0,83,0.00,,,0.00,Wunderground v.1.15,2013-10-11 21:04:00,
2013-10-11 17:14:00,60.1,55.2,30.07,SE,130,0.0,0.0,84,0.00,,,0.00,Wunderground v.1.15,2013-10-11 21:14:00,
2013-10-11 17:24:00,59.9,55.4,30.07,SE,129,0.0,0.0,85,0.00,,,0.00,Wunderground v.1.15,2013-10-11 21:24:00,
2013-10-11 17:29:00,59.7,54.9,30.07,SE,130,0.0,0.0,84,0.00,,,0.00,Wunderground v.1.15,2013-10-11 21:29:00,
2013-10-11 17:34:00,59.6,54.8,30.07,SE,129,0.0,0.0,84,0.00,,,0.00,Wunderground v.1.15,2013-10-11 21:34:00,
2013-10-11 17:39:00,59.4,54.9,30.07,SE,130,0.0,0.0,85,0.00,,,0.00,Wunderground v.1.15,2013-10-11 21:39:00,
2013-10-11 17:44:00,59.2,54.7,30.07,SE,130,0.0,0.0,85,0.00,,,0.00,Wunderground v.1.15,2013-10-11 21:44:00,
2013-10-11 17:54:00,59.0,55.1,30.08,SE,130,0.0,0.0,87,0.00,,,0.00,Wunderground v.1.15,2013-10-11 21:54:00,
2013-10-11 18:04:00,58.6,55.1,30.08,SE,130,0.0,0.0,88,0.00,,,0.00,Wunderground v.1.15,2013-10-11 22:04:00,
2013-10-11 18:09:00,58.3,54.8,30.08,SE,130,0.0,0.0,88,0.00,,,0.00,Wunderground v.1.15,2013-10-11 22:09:00,
2013-10-11 18:14:00,58.1,54.9,30.08,SE,130,0.0,0.0,89,0.00,,,0.00,Wunderground v.1.15,2013-10-11 22:14:00,
2013-10-11 18:19:00,57.9,54.7,30.08,SE,129,0.0,0.0,89,0.00,,,0.00,Wunderground v.1.15,2013-10-11 22:19:00,
2013-10-11 18:24:00,57.7,54.8,30.08,SE,130,0.0,0.0,90,0.00,,,0.00,Wunderground v.1.15,2013-10-11 22:24:00,
2013-10-11 18:29:00,57.6,54.7,30.08,SE,129,0.0,0.0,90,0.00,,,0.00,Wunderground v.1.15,2013-10-11 22:29:00,
2013-10-11 18:39:00,57.3,54.4,30.08,SE,129,0.0,0.0,90,0.00,,,0.00,Wunderground v.1.15,2013-10-11 22:39:00,
2013-10-11 18:44:00,57.1,54.5,30.08,SE,130,0.0,0.0,91,0.00,,,0.00,Wunderground v.1.15,2013-10-11 22:44:00,
2013-10-11 18:49:00,57.0,54.4,30.08,SE,130,0.0,0.0,91,0.00,,,0.00,Wunderground v.1.15,2013-10-11 22:49:00,
2013-10-11 18:59:00,56.8,54.5,30.08,SE,130,0.0,0.0,92,0.00,,,0.00,Wunderground v.1.15,2013-10-11 22:59:00,
2013-10-11 19:09:00,56.6,54.3,30.08,SE,130,0.0,0.0,92,0.00,,,0.00,Wunderground v.1.15,2013-10-11 23:09:00,
2013-10-11 19:14:00,56.5,54.2,30.08,SE,129,0.0,0.0,92,0.00,,,0.00,Wunderground v.1.15,2013-10-11 23:14:00,
2013-10-11 19:19:00,56.5,54.5,30.08,SE,130,0.0,0.0,93,0.00,,,0.00,Wunderground v.1.15,2013-10-11 23:19:00,
2013-10-11 19:29:00,56.5,54.5,30.08,SE,130,0.0,0.0,93,0.00,,,0.00,Wunderground v.1.15,2013-10-11 23:29:00,
2013-10-11 19:34:00,56.5,54.8,30.08,SE,129,0.0,0.0,94,0.00,,,0.00,Wunderground v.1.15,2013-10-11 23:34:00,
2013-10-11 19:44:00,56.5,54.8,30.08,SE,130,0.0,0.0,94,0.00,,,0.00,Wunderground v.1.15,2013-10-11 23:44:00,
2013-10-11 19:49:00,56.5,54.8,30.08,SE,129,0.0,0.0,94,0.00,,,0.00,Wunderground v.1.15,2013-10-11 23:49:00,
2013-10-11 19:54:00,56.4,54.7,30.08,SE,130,0.0,0.0,94,0.00,,,0.00,Wunderground v.1.15,2013-10-11 23:54:00,
2013-10-11 19:59:00,56.3,54.6,30.08,SE,129,0.0,0.0,94,0.00,,,0.00,Wunderground v.1.15,2013-10-11 23:59:00,
2013-10-11 20:04:00,56.3,54.6,30.08,SE,130,0.0,0.0,94,0.00,,,0.00,Wunderground v.1.15,2013-10-12 00:04:00,
2013-10-11 20:14:00,56.2,54.5,30.08,SE,129,0.0,0.0,94,0.00,,,0.00,Wunderground v.1.15,2013-10-12 00:14:00,
2013-10-11 20:24:00,56.2,54.5,30.08,SE,129,0.0,0.0,94,0.00,,,0.00,Wunderground v.1.15,2013-10-12 00:24:00,
2013-10-11 20:29:00,56.1,54.4,30.08,SE,130,0.0,0.0,94,0.00,,,0.00,Wunderground v.1.15,2013-10-12 00:29:00,
2013-10-11 20:34:00,56.0,54.3,30.08,SE,129,0.0,0.0,94,0.00,,,0.00,Wunderground v.1.15,2013-10-12 00:34:00,
2013-10-11 20:39:00,55.9,54.2,30.08,SE,130,0.0,0.0,94,0.00,,,0.00,Wunderground v.1.15,2013-10-12 00:39:00,
2013-10-11 20:44:00,55.8,54.1,30.09,SE,129,0.0,0.0,94,0.00,,,0.00,Wunderground v.1.15,2013-10-12 00:44:00,
2013-10-11 20:49:00,55.7,54.0,30.09,SE,130,0.0,0.0,94,0.00,,,0.00,Wunderground v.1.15,2013-10-12 00:49:00,
2013-10-11 20:59:00,55.4,53.7,30.09,SE,130,0.0,0.0,94,0.00,,,0.00,Wunderground v.1.15,2013-10-12 00:59:00,
2013-10-11 21:09:00,55.3,53.9,30.10,SE,130,0.0,0.0,95,0.00,,,0.00,Wunderground v.1.15,2013-10-12 01:09:00,
2013-10-11 21:19:00,55.5,54.1,30.10,SE,130,0.0,0.0,95,0.00,,,0.00,Wunderground v.1.15,2013-10-12 01:19:00,
2013-10-11 21:29:00,55.4,54.0,30.10,SE,129,0.0,0.0,95,0.00,,,0.00,Wunderground v.1.15,2013-10-12 01:29:00,
2013-10-11 21:34:00,55.3,53.9,30.10,SE,130,0.0,0.0,95,0.00,,,0.00,Wunderground v.1.15,2013-10-12 01:34:00,
2013-10-11 21:39:00,55.2,53.8,30.10,SE,129,0.0,0.0,95,0.00,,,0.00,Wunderground v.1.15,2013-10-12 01:39:00,
2013-10-11 21:49:00,55.1,54.0,30.10,SE,130,0.0,0.0,96,0.00,,,0.00,Wunderground v.1.15,2013-10-12 01:49:00,
2013-10-11 21:54:00,55.1,54.0,30.10,SE,130,0.0,0.0,96,0.00,,,0.00,Wunderground v.1.15,2013-10-12 01:54:00,
2013-10-11 21:59:00,54.9,53.5,30.10,SE,129,0.0,0.0,95,0.00,,,0.00,Wunderground v.1.15,2013-10-12 01:59:00,
2013-10-11 22:04:00,54.8,53.7,30.11,SE,130,0.0,0.0,96,0.00,,,0.00,Wunderground v.1.15,2013-10-12 02:04:00,
2013-10-11 22:09:00,54.7,53.6,30.11,SE,130,0.0,0.0,96,0.00,,,0.00,Wunderground v.1.15,2013-10-12 02:09:00,
2013-10-11 22:14:00,54.5,53.4,30.11,SE,129,0.0,0.0,96,0.00,,,0.00,Wunderground v.1.15,2013-10-12 02:14:00,
2013-10-11 22:19:00,54.4,53.0,30.11,SE,130,0.0,0.0,95,0.00,,,0.00,Wunderground v.1.15,2013-10-12 02:19:00,
2013-10-11 22:29:00,54.0,52.9,30.11,SE,129,0.0,0.0,96,0.00,,,0.00,Wunderground v.1.15,2013-10-12 02:29:00,
2013-10-11 22:34:00,53.8,52.4,30.11,SE,130,0.0,0.0,95,0.00,,,0.00,Wunderground v.1.15,2013-10-12 02:34:00,
2013-10-11 22:39:00,53.6,52.5,30.11,SE,130,0.0,0.0,96,0.00,,,0.00,Wunderground v.1.15,2013-10-12 02:39:00,
2013-10-11 22:49:00,53.4,52.3,30.10,SE,130,0.0,0.0,96,0.00,,,0.00,Wunderground v.1.15,2013-10-12 02:49:00,
2013-10-11 22:54:00,53.3,52.2,30.11,SE,129,0.0,0.0,96,0.00,,,0.00,Wunderground v.1.15,2013-10-12 02:54:00,
2013-10-11 22:59:00,53.2,52.1,30.11,SE,130,0.0,0.0,96,0.00,,,0.00,Wunderground v.1.15,2013-10-12 02:59:00,
2013-10-11 23:04:00,53.0,51.9,30.11,SE,130,0.0,0.0,96,0.00,,,0.00,Wunderground v.1.15,2013-10-12 03:04:00,
2013-10-11 23:09:00,53.0,51.9,30.11,SE,129,0.0,0.0,96,0.00,,,0.00,Wunderground v.1.15,2013-10-12 03:09:00,
2013-10-11 23:14:00,52.9,51.8,30.11,SE,130,0.0,0.0,96,0.00,,,0.00,Wunderground v.1.15,2013-10-12 03:14:00,
2013-10-11 23:19:00,52.7,51.6,30.10,SE,129,0.0,0.0,96,0.00,,,0.00,Wunderground v.1.15,2013-10-12 03:19:00,
2013-10-11 23:24:00,52.7,51.6,30.10,SE,130,0.0,0.0,96,0.00,,,0.00,Wunderground v.1.15,2013-10-12 03:24:00,
2013-10-11 23:29:00,52.6,51.5,30.10,SE,129,0.0,0.0,96,0.00,,,0.00,Wunderground v.1.15,2013-10-12 03:29:00,
2013-10-11 23:39:00,52.5,51.4,30.11,SE,129,0.0,0.0,96,0.00,,,0.00,Wunderground v.1.15,2013-10-12 03:39:00,
2013-10-11 23:44:00,52.4,51.3,30.11,SE,130,0.0,0.0,96,0.00,,,0.00,Wunderground v.1.15,2013-10-12 03:44:00,
2013-10-11 23:49:00,52.3,51.2,30.11,SE,129,0.0,0.0,96,0.00,,,0.00,Wunderground v.1.15,2013-10-12 03:49:00,
2013-10-11 23:59:00,52.0,50.9,30.11,SE,130,0.0,0.0,96,0.00,,,0.00,Wunderground v.1.15,2013-10-12 03:59:00,